sensor_id;sensor_type;location;lat;lon;timestamp;pressure;altitude;pressure_sealevel;temperature;humidity
20017;BME280;10169;42.664;23.610;2023-04-27T00:00:36;94923.41;;;7.59;100.00
20017;BME280;10169;42.664;23.610;2023-04-27T00:02:36;94934.22;;;7.57;100.00
20017;BME280;10169;42.664;23.610;2023-04-27T00:04:40;94928.69;;;7.47;100.00
20017;BME280;10169;42.664;23.610;2023-04-27T00:06:42;94931.72;;;7.51;100.00
20017;BME280;10169;42.664;23.610;2023-04-27T00:08:42;94933.19;;;7.47;100.00
20017;BME280;10169;42.664;23.610;2023-04-27T00:10:42;94940.09;;;7.48;100.00
20017;BME280;10169;42.664;23.610;2023-04-27T00:12:42;94941.34;;;7.45;100.00
20017;BME280;10169;42.664;23.610;2023-04-27T00:14:43;94942.59;;;7.43;100.00
20017;BME280;10169;42.664;23.610;2023-04-27T00:16:43;94942.25;;;7.39;100.00
20017;BME280;10169;42.664;23.610;2023-04-27T00:18:43;94939.25;;;7.36;100.00
20017;BME280;10169;42.664;23.610;2023-04-27T00:20:44;94941.09;;;7.23;100.00
20017;BME280;10169;42.664;23.610;2023-04-27T00:22:44;94941.31;;;7.22;100.00
20017;BME280;10169;42.664;23.610;2023-04-27T00:24:44;94947.41;;;7.22;100.00
20017;BME280;10169;42.664;23.610;2023-04-27T00:26:45;94945.31;;;7.24;100.00
20017;BME280;10169;42.664;23.610;2023-04-27T00:28:45;94946.81;;;7.20;100.00
20017;BME280;10169;42.664;23.610;2023-04-27T00:30:45;94945.44;;;7.18;100.00
20017;BME280;10169;42.664;23.610;2023-04-27T00:32:47;94939.72;;;7.21;100.00
20017;BME280;10169;42.664;23.610;2023-04-27T00:34:48;94946.69;;;7.15;100.00
20017;BME280;10169;42.664;23.610;2023-04-27T00:36:48;94937.03;;;7.09;100.00
20017;BME280;10169;42.664;23.610;2023-04-27T00:38:48;94940.94;;;7.07;100.00
20017;BME280;10169;42.664;23.610;2023-04-27T00:40:48;94943.13;;;7.10;100.00
20017;BME280;10169;42.664;23.610;2023-04-27T00:42:49;94944.38;;;7.07;100.00
20017;BME280;10169;42.664;23.610;2023-04-27T00:44:49;94955.63;;;7.03;100.00
20017;BME280;10169;42.664;23.610;2023-04-27T00:46:50;94945.75;;;6.98;100.00
20017;BME280;10169;42.664;23.610;2023-04-27T00:48:51;94946.75;;;6.97;100.00
20017;BME280;10169;42.664;23.610;2023-04-27T00:50:51;94940.13;;;6.95;100.00
20017;BME280;10169;42.664;23.610;2023-04-27T00:52:51;94959.03;;;6.92;100.00
20017;BME280;10169;42.664;23.610;2023-04-27T00:54:52;94957.56;;;6.96;100.00
20017;BME280;10169;42.664;23.610;2023-04-27T00:56:52;94947.19;;;6.83;100.00
20017;BME280;10169;42.664;23.610;2023-04-27T00:58:53;94964.03;;;6.82;100.00
20017;BME280;10169;42.664;23.610;2023-04-27T01:00:53;94953.38;;;6.77;100.00
20017;BME280;10169;42.664;23.610;2023-04-27T01:02:53;94958.44;;;6.78;100.00
20017;BME280;10169;42.664;23.610;2023-04-27T01:04:54;94947.94;;;6.72;100.00
20017;BME280;10169;42.664;23.610;2023-04-27T01:06:55;94960.72;;;6.75;100.00
20017;BME280;10169;42.664;23.610;2023-04-27T01:08:55;94952.41;;;6.71;100.00
20017;BME280;10169;42.664;23.610;2023-04-27T01:10:56;94960.34;;;6.71;100.00
20017;BME280;10169;42.664;23.610;2023-04-27T01:12:56;94958.13;;;6.68;100.00
20017;BME280;10169;42.664;23.610;2023-04-27T01:14:56;94958.81;;;6.64;100.00
20017;BME280;10169;42.664;23.610;2023-04-27T01:16:57;94964.03;;;6.70;100.00
20017;BME280;10169;42.664;23.610;2023-04-27T01:18:57;94962.59;;;6.56;100.00
20017;BME280;10169;42.664;23.610;2023-04-27T01:20:57;94963.41;;;6.56;100.00
20017;BME280;10169;42.664;23.610;2023-04-27T01:22:59;94958.47;;;6.60;100.00
20017;BME280;10169;42.664;23.610;2023-04-27T01:24:59;94963.41;;;6.56;100.00
20017;BME280;10169;42.664;23.610;2023-04-27T01:27:00;94960.69;;;6.45;100.00
20017;BME280;10169;42.664;23.610;2023-04-27T01:29:01;94966.31;;;6.48;100.00
20017;BME280;10169;42.664;23.610;2023-04-27T01:31:02;94964.94;;;6.46;100.00
20017;BME280;10169;42.664;23.610;2023-04-27T01:33:02;94963.19;;;6.40;100.00
20017;BME280;10169;42.664;23.610;2023-04-27T01:35:03;94960.97;;;6.37;100.00
20017;BME280;10169;42.664;23.610;2023-04-27T01:37:03;94964.25;;;6.21;100.00
20017;BME280;10169;42.664;23.610;2023-04-27T01:39:04;94963.50;;;6.14;100.00
20017;BME280;10169;42.664;23.610;2023-04-27T01:41:08;94951.31;;;6.13;100.00
20017;BME280;10169;42.664;23.610;2023-04-27T01:43:08;94966.22;;;6.07;100.00
20017;BME280;10169;42.664;23.610;2023-04-27T01:45:08;94971.84;;;6.11;100.00
20017;BME280;10169;42.664;23.610;2023-04-27T01:47:09;94968.03;;;6.07;100.00
20017;BME280;10169;42.664;23.610;2023-04-27T01:49:09;94971.69;;;6.06;100.00
20017;BME280;10169;42.664;23.610;2023-04-27T01:51:10;94972.72;;;6.05;100.00
20017;BME280;10169;42.664;23.610;2023-04-27T01:53:10;94980.78;;;6.10;100.00
20017;BME280;10169;42.664;23.610;2023-04-27T01:55:11;94972.16;;;6.03;100.00
20017;BME280;10169;42.664;23.610;2023-04-27T01:57:11;94971.75;;;5.99;100.00
20017;BME280;10169;42.664;23.610;2023-04-27T01:59:11;94970.94;;;5.99;100.00
20017;BME280;10169;42.664;23.610;2023-04-27T02:01:11;94976.59;;;6.02;100.00
20017;BME280;10169;42.664;23.610;2023-04-27T02:03:12;94981.06;;;6.02;100.00
20017;BME280;10169;42.664;23.610;2023-04-27T02:05:12;94974.97;;;6.01;100.00
20017;BME280;10169;42.664;23.610;2023-04-27T02:07:12;94978.44;;;6.02;100.00
20017;BME280;10169;42.664;23.610;2023-04-27T02:09:13;94978.81;;;6.05;100.00
20017;BME280;10169;42.664;23.610;2023-04-27T02:11:13;94984.28;;;6.04;100.00
20017;BME280;10169;42.664;23.610;2023-04-27T02:13:13;94982.25;;;6.06;100.00
20017;BME280;10169;42.664;23.610;2023-04-27T02:15:14;94987.16;;;6.02;100.00
20017;BME280;10169;42.664;23.610;2023-04-27T02:17:15;94981.66;;;6.04;100.00
20017;BME280;10169;42.664;23.610;2023-04-27T02:19:15;94986.56;;;6.00;100.00
20017;BME280;10169;42.664;23.610;2023-04-27T02:21:15;94986.34;;;6.02;100.00
20017;BME280;10169;42.664;23.610;2023-04-27T02:23:16;94986.56;;;6.00;100.00
20017;BME280;10169;42.664;23.610;2023-04-27T02:25:16;94988.41;;;6.00;100.00
20017;BME280;10169;42.664;23.610;2023-04-27T02:27:17;94982.97;;;5.95;100.00
20017;BME280;10169;42.664;23.610;2023-04-27T02:29:17;94986.25;;;5.90;100.00
20017;BME280;10169;42.664;23.610;2023-04-27T02:31:17;94986.28;;;5.83;100.00
20017;BME280;10169;42.664;23.610;2023-04-27T02:33:17;94988.19;;;5.76;100.00
20017;BME280;10169;42.664;23.610;2023-04-27T02:35:18;94993.03;;;5.79;100.00
20017;BME280;10169;42.664;23.610;2023-04-27T02:37:18;94989.00;;;5.77;100.00
20017;BME280;10169;42.664;23.610;2023-04-27T02:39:18;94986.06;;;5.67;100.00
20017;BME280;10169;42.664;23.610;2023-04-27T02:41:19;94986.25;;;5.65;100.00
20017;BME280;10169;42.664;23.610;2023-04-27T02:43:20;94988.75;;;5.60;100.00
20017;BME280;10169;42.664;23.610;2023-04-27T02:45:20;94994.06;;;5.54;100.00
20017;BME280;10169;42.664;23.610;2023-04-27T02:47:20;95002.03;;;5.47;100.00
20017;BME280;10169;42.664;23.610;2023-04-27T02:49:21;94994.97;;;5.41;100.00
20017;BME280;10169;42.664;23.610;2023-04-27T02:51:21;95009.03;;;5.35;100.00
20017;BME280;10169;42.664;23.610;2023-04-27T02:53:21;95004.81;;;5.28;100.00
20017;BME280;10169;42.664;23.610;2023-04-27T02:55:21;95004.09;;;5.14;100.00
20017;BME280;10169;42.664;23.610;2023-04-27T02:57:22;95008.59;;;5.07;100.00
20017;BME280;10169;42.664;23.610;2023-04-27T02:59:22;95003.59;;;4.99;100.00
20017;BME280;10169;42.664;23.610;2023-04-27T03:01:22;95015.22;;;4.85;100.00
20017;BME280;10169;42.664;23.610;2023-04-27T03:03:23;95010.59;;;4.80;100.00
20017;BME280;10169;42.664;23.610;2023-04-27T03:05:24;95015.22;;;4.85;100.00
20017;BME280;10169;42.664;23.610;2023-04-27T03:07:25;95012.81;;;4.83;100.00
20017;BME280;10169;42.664;23.610;2023-04-27T03:09:25;95018.28;;;4.82;100.00
20017;BME280;10169;42.664;23.610;2023-04-27T03:11:25;95018.69;;;4.79;100.00
20017;BME280;10169;42.664;23.610;2023-04-27T03:13:26;95028.19;;;4.80;100.00
20017;BME280;10169;42.664;23.610;2023-04-27T03:15:27;95016.28;;;4.77;100.00
20017;BME280;10169;42.664;23.610;2023-04-27T03:17:27;95019.88;;;4.83;100.00
20017;BME280;10169;42.664;23.610;2023-04-27T03:19:28;95023.94;;;4.85;100.00
20017;BME280;10169;42.664;23.610;2023-04-27T03:21:28;95025.56;;;4.80;100.00
20017;BME280;10169;42.664;23.610;2023-04-27T03:23:28;95027.19;;;4.81;100.00
20017;BME280;10169;42.664;23.610;2023-04-27T03:25:28;95025.59;;;4.73;100.00
20017;BME280;10169;42.664;23.610;2023-04-27T03:27:29;95038.38;;;4.70;100.00
20017;BME280;10169;42.664;23.610;2023-04-27T03:29:29;95032.72;;;4.73;100.00
20017;BME280;10169;42.664;23.610;2023-04-27T03:31:30;95030.25;;;4.71;100.00
20017;BME280;10169;42.664;23.610;2023-04-27T03:33:30;95032.72;;;4.73;100.00
20017;BME280;10169;42.664;23.610;2023-04-27T03:35:30;95029.44;;;4.71;100.00
20017;BME280;10169;42.664;23.610;2023-04-27T03:37:31;95033.34;;;4.68;100.00
20017;BME280;10169;42.664;23.610;2023-04-27T03:39:31;95036.16;;;4.67;100.00
20017;BME280;10169;42.664;23.610;2023-04-27T03:41:32;95035.97;;;4.68;100.00
20017;BME280;10169;42.664;23.610;2023-04-27T03:43:32;95043.88;;;4.68;100.00
20017;BME280;10169;42.664;23.610;2023-04-27T03:45:32;95044.25;;;4.72;100.00
20017;BME280;10169;42.664;23.610;2023-04-27T03:47:33;95042.19;;;4.74;100.00
20017;BME280;10169;42.664;23.610;2023-04-27T03:49:33;95051.88;;;4.80;100.00
20017;BME280;10169;42.664;23.610;2023-04-27T03:51:34;95041.78;;;4.77;100.00
20017;BME280;10169;42.664;23.610;2023-04-27T03:53:34;95052.06;;;4.85;100.00
20017;BME280;10169;42.664;23.610;2023-04-27T03:55:41;95045.22;;;4.84;100.00
20017;BME280;10169;42.664;23.610;2023-04-27T03:57:42;95049.63;;;4.90;100.00
20017;BME280;10169;42.664;23.610;2023-04-27T03:59:42;95050.03;;;4.87;100.00
20017;BME280;10169;42.664;23.610;2023-04-27T04:01:42;95057.31;;;4.91;100.00
20017;BME280;10169;42.664;23.610;2023-04-27T04:03:43;95056.91;;;4.94;100.00
20017;BME280;10169;42.664;23.610;2023-04-27T04:05:43;95064.16;;;4.99;100.00
20017;BME280;10169;42.664;23.610;2023-04-27T04:07:46;95060.09;;;5.03;100.00
20017;BME280;10169;42.664;23.610;2023-04-27T04:09:46;95068.75;;;5.10;100.00
20017;BME280;10169;42.664;23.610;2023-04-27T04:11:46;95074.25;;;5.08;100.00
20017;BME280;10169;42.664;23.610;2023-04-27T04:13:47;95073.22;;;5.09;100.00
20017;BME280;10169;42.664;23.610;2023-04-27T04:15:47;95073.66;;;5.06;100.00
20017;BME280;10169;42.664;23.610;2023-04-27T04:17:47;95075.22;;;5.14;100.00
20017;BME280;10169;42.664;23.610;2023-04-27T04:19:48;95074.03;;;5.10;100.00
20017;BME280;10169;42.664;23.610;2023-04-27T04:21:48;95085.53;;;5.22;100.00
20017;BME280;10169;42.664;23.610;2023-04-27T04:23:48;95087.06;;;5.30;100.00
20017;BME280;10169;42.664;23.610;2023-04-27T04:25:49;95082.41;;;5.32;100.00
20017;BME280;10169;42.664;23.610;2023-04-27T04:27:49;95087.88;;;5.30;100.00
20017;BME280;10169;42.664;23.610;2023-04-27T04:29:50;95086.03;;;5.37;100.00
20017;BME280;10169;42.664;23.610;2023-04-27T04:31:50;95090.91;;;5.34;100.00
20017;BME280;10169;42.664;23.610;2023-04-27T04:33:50;95087.47;;;5.33;100.00
20017;BME280;10169;42.664;23.610;2023-04-27T04:35:51;95089.25;;;5.39;100.00
20017;BME280;10169;42.664;23.610;2023-04-27T04:37:52;95090.84;;;5.40;100.00
20017;BME280;10169;42.664;23.610;2023-04-27T04:39:52;95093.50;;;5.40;100.00
20017;BME280;10169;42.664;23.610;2023-04-27T04:41:53;95100.34;;;5.48;100.00
20017;BME280;10169;42.664;23.610;2023-04-27T04:43:53;95094.59;;;5.57;100.00
20017;BME280;10169;42.664;23.610;2023-04-27T04:45:53;95105.69;;;5.66;100.00
20017;BME280;10169;42.664;23.610;2023-04-27T04:47:53;95113.25;;;5.62;100.00
20017;BME280;10169;42.664;23.610;2023-04-27T04:49:54;95101.06;;;5.61;100.00
20017;BME280;10169;42.664;23.610;2023-04-27T04:51:54;95111.19;;;5.64;100.00
20017;BME280;10169;42.664;23.610;2023-04-27T04:53:55;95114.16;;;5.74;100.00
20017;BME280;10169;42.664;23.610;2023-04-27T04:55:55;95114.69;;;5.83;100.00
20017;BME280;10169;42.664;23.610;2023-04-27T04:57:55;95119.00;;;5.77;100.00
20017;BME280;10169;42.664;23.610;2023-04-27T04:59:56;95119.25;;;5.69;100.00
20017;BME280;10169;42.664;23.610;2023-04-27T05:01:56;95129.97;;;5.74;100.00
20017;BME280;10169;42.664;23.610;2023-04-27T05:03:57;95119.09;;;5.96;100.00
20017;BME280;10169;42.664;23.610;2023-04-27T05:05:57;95114.63;;;5.96;100.00
20017;BME280;10169;42.664;23.610;2023-04-27T05:07:57;95128.72;;;6.08;100.00
20017;BME280;10169;42.664;23.610;2023-04-27T05:09:58;95127.81;;;6.21;100.00
20017;BME280;10169;42.664;23.610;2023-04-27T05:12:00;95128.41;;;6.23;100.00
20017;BME280;10169;42.664;23.610;2023-04-27T05:14:00;95139.44;;;6.38;100.00
20017;BME280;10169;42.664;23.610;2023-04-27T05:16:04;95142.53;;;6.53;100.00
20017;BME280;10169;42.664;23.610;2023-04-27T05:18:07;95138.16;;;6.65;100.00
20017;BME280;10169;42.664;23.610;2023-04-27T05:20:08;95141.25;;;6.37;100.00
20017;BME280;10169;42.664;23.610;2023-04-27T05:22:08;95135.19;;;6.55;100.00
20017;BME280;10169;42.664;23.610;2023-04-27T05:24:09;95118.63;;;6.66;100.00
20017;BME280;10169;42.664;23.610;2023-04-27T05:26:11;95139.63;;;6.79;100.00
20017;BME280;10169;42.664;23.610;2023-04-27T05:28:11;95138.81;;;6.61;100.00
20017;BME280;10169;42.664;23.610;2023-04-27T05:30:12;95142.19;;;6.86;100.00
20017;BME280;10169;42.664;23.610;2023-04-27T05:32:12;95137.69;;;7.04;100.00
20017;BME280;10169;42.664;23.610;2023-04-27T05:34:12;95140.06;;;6.94;100.00
20017;BME280;10169;42.664;23.610;2023-04-27T05:36:13;95148.25;;;7.22;100.00
20017;BME280;10169;42.664;23.610;2023-04-27T05:38:13;95144.34;;;7.43;100.00
20017;BME280;10169;42.664;23.610;2023-04-27T05:40:16;95141.41;;;7.63;96.92
20017;BME280;10169;42.664;23.610;2023-04-27T05:42:16;95142.59;;;7.37;94.73
20017;BME280;10169;42.664;23.610;2023-04-27T05:44:17;95135.19;;;7.27;98.55
20017;BME280;10169;42.664;23.610;2023-04-27T05:46:17;95139.16;;;7.18;99.66
20017;BME280;10169;42.664;23.610;2023-04-27T05:48:17;95141.97;;;7.05;100.00
20017;BME280;10169;42.664;23.610;2023-04-27T05:50:18;95143.28;;;6.96;100.00
20017;BME280;10169;42.664;23.610;2023-04-27T05:52:18;95142.56;;;6.89;100.00
20017;BME280;10169;42.664;23.610;2023-04-27T05:54:19;95140.34;;;7.04;100.00
20017;BME280;10169;42.664;23.610;2023-04-27T05:56:20;95141.66;;;6.95;100.00
20017;BME280;10169;42.664;23.610;2023-04-27T05:58:20;95147.59;;;6.73;100.00
20017;BME280;10169;42.664;23.610;2023-04-27T06:00:20;95150.19;;;6.79;100.00
20017;BME280;10169;42.664;23.610;2023-04-27T06:02:21;95146.09;;;6.83;100.00
20017;BME280;10169;42.664;23.610;2023-04-27T06:04:22;95144.63;;;6.87;100.00
20017;BME280;10169;42.664;23.610;2023-04-27T06:06:22;95149.47;;;6.72;100.00
20017;BME280;10169;42.664;23.610;2023-04-27T06:08:22;95156.78;;;6.88;100.00
20017;BME280;10169;42.664;23.610;2023-04-27T06:10:22;95148.66;;;6.90;100.00
20017;BME280;10169;42.664;23.610;2023-04-27T06:12:23;95151.50;;;6.88;100.00
20017;BME280;10169;42.664;23.610;2023-04-27T06:14:23;95157.31;;;6.97;100.00
20017;BME280;10169;42.664;23.610;2023-04-27T06:16:24;95147.84;;;7.07;100.00
20017;BME280;10169;42.664;23.610;2023-04-27T06:18:24;95144.88;;;7.15;100.00
20017;BME280;10169;42.664;23.610;2023-04-27T06:20:24;95157.50;;;7.13;100.00
20017;BME280;10169;42.664;23.610;2023-04-27T06:22:25;95151.03;;;7.27;100.00
20017;BME280;10169;42.664;23.610;2023-04-27T06:24:26;95154.28;;;7.29;100.00
20017;BME280;10169;42.664;23.610;2023-04-27T06:26:27;95156.47;;;7.32;100.00
20017;BME280;10169;42.664;23.610;2023-04-27T06:28:27;95160.13;;;7.31;100.00
20017;BME280;10169;42.664;23.610;2023-04-27T06:30:28;95143.44;;;7.19;100.00
20017;BME280;10169;42.664;23.610;2023-04-27T06:32:28;95154.78;;;7.20;100.00
20017;BME280;10169;42.664;23.610;2023-04-27T06:34:29;95154.69;;;7.26;100.00
20017;BME280;10169;42.664;23.610;2023-04-27T06:36:29;95155.75;;;7.25;100.00
20017;BME280;10169;42.664;23.610;2023-04-27T06:38:30;95152.50;;;7.42;100.00
20017;BME280;10169;42.664;23.610;2023-04-27T06:40:31;95149.81;;;7.60;100.00
20017;BME280;10169;42.664;23.610;2023-04-27T06:42:31;95166.06;;;7.75;100.00
20017;BME280;10169;42.664;23.610;2023-04-27T06:44:31;95160.06;;;7.68;98.27
20017;BME280;10169;42.664;23.610;2023-04-27T06:46:32;95158.75;;;7.88;98.91
20017;BME280;10169;42.664;23.610;2023-04-27T06:48:32;95159.03;;;8.10;100.00
20017;BME280;10169;42.664;23.610;2023-04-27T06:50:32;95164.13;;;8.23;97.70
20017;BME280;10169;42.664;23.610;2023-04-27T06:52:33;95147.66;;;8.21;94.59
20017;BME280;10169;42.664;23.610;2023-04-27T06:54:33;95158.25;;;8.21;96.76
20017;BME280;10169;42.664;23.610;2023-04-27T06:56:33;95153.50;;;8.12;95.72
20017;BME280;10169;42.664;23.610;2023-04-27T06:58:34;95151.31;;;8.09;92.97
20017;BME280;10169;42.664;23.610;2023-04-27T07:00:34;95148.72;;;8.20;93.11
20017;BME280;10169;42.664;23.610;2023-04-27T07:02:34;95145.53;;;8.53;92.72
20017;BME280;10169;42.664;23.610;2023-04-27T07:04:34;95147.38;;;8.64;87.84
20017;BME280;10169;42.664;23.610;2023-04-27T07:06:37;95155.88;;;8.77;86.67
20017;BME280;10169;42.664;23.610;2023-04-27T07:08:37;95154.50;;;8.75;83.74
20017;BME280;10169;42.664;23.610;2023-04-27T07:10:37;95148.88;;;8.71;83.54
20017;BME280;10169;42.664;23.610;2023-04-27T07:12:38;95144.72;;;8.64;81.99
20017;BME280;10169;42.664;23.610;2023-04-27T07:14:38;95146.44;;;8.82;82.83
20017;BME280;10169;42.664;23.610;2023-04-27T07:16:39;95148.03;;;8.94;84.44
20017;BME280;10169;42.664;23.610;2023-04-27T07:18:39;95144.44;;;9.12;86.73
20017;BME280;10169;42.664;23.610;2023-04-27T07:20:40;95146.59;;;9.26;85.48
20017;BME280;10169;42.664;23.610;2023-04-27T07:22:41;95148.38;;;9.37;84.13
20017;BME280;10169;42.664;23.610;2023-04-27T07:24:41;95144.53;;;9.57;79.86
20017;BME280;10169;42.664;23.610;2023-04-27T07:26:41;95146.13;;;9.29;77.55
20017;BME280;10169;42.664;23.610;2023-04-27T07:28:42;95144.22;;;9.41;80.48
20017;BME280;10169;42.664;23.610;2023-04-27T07:30:43;95142.38;;;9.42;75.95
20017;BME280;10169;42.664;23.610;2023-04-27T07:32:43;95132.22;;;9.79;78.58
20017;BME280;10169;42.664;23.610;2023-04-27T07:34:44;95135.91;;;9.49;74.11
20017;BME280;10169;42.664;23.610;2023-04-27T07:36:45;95147.56;;;9.77;73.35
20017;BME280;10169;42.664;23.610;2023-04-27T07:38:45;95147.00;;;9.75;71.82
20017;BME280;10169;42.664;23.610;2023-04-27T07:40:46;95141.28;;;9.83;71.32
20017;BME280;10169;42.664;23.610;2023-04-27T07:42:46;95143.81;;;9.89;69.54
20017;BME280;10169;42.664;23.610;2023-04-27T07:44:46;95132.47;;;9.94;70.92
20017;BME280;10169;42.664;23.610;2023-04-27T07:46:49;95142.66;;;10.30;71.16
20017;BME280;10169;42.664;23.610;2023-04-27T07:48:53;95139.84;;;10.53;67.19
20017;BME280;10169;42.664;23.610;2023-04-27T07:50:54;95136.38;;;10.36;65.52
20017;BME280;10169;42.664;23.610;2023-04-27T07:52:54;95141.59;;;9.86;62.25
20017;BME280;10169;42.664;23.610;2023-04-27T07:54:55;95140.63;;;9.76;62.56
20017;BME280;10169;42.664;23.610;2023-04-27T07:56:56;95136.69;;;9.78;63.81
20017;BME280;10169;42.664;23.610;2023-04-27T07:58:56;95128.66;;;10.18;63.61
20017;BME280;10169;42.664;23.610;2023-04-27T08:00:56;95138.78;;;10.71;63.71
20017;BME280;10169;42.664;23.610;2023-04-27T08:02:56;95127.25;;;10.65;60.10
20017;BME280;10169;42.664;23.610;2023-04-27T08:04:57;95137.44;;;10.90;61.85
20017;BME280;10169;42.664;23.610;2023-04-27T08:06:57;95128.63;;;11.06;59.98
20017;BME280;10169;42.664;23.610;2023-04-27T08:08:57;95137.44;;;11.07;61.77
20017;BME280;10169;42.664;23.610;2023-04-27T08:10:59;95138.53;;;11.11;59.50
20017;BME280;10169;42.664;23.610;2023-04-27T08:13:00;95129.78;;;11.32;58.82
20017;BME280;10169;42.664;23.610;2023-04-27T08:15:00;95134.34;;;11.36;57.87
20017;BME280;10169;42.664;23.610;2023-04-27T08:17:01;95140.84;;;11.45;57.90
20017;BME280;10169;42.664;23.610;2023-04-27T08:19:01;95139.41;;;11.16;57.32
20017;BME280;10169;42.664;23.610;2023-04-27T08:21:02;95132.72;;;11.35;56.78
20017;BME280;10169;42.664;23.610;2023-04-27T08:23:03;95133.34;;;11.42;56.41
20017;BME280;10169;42.664;23.610;2023-04-27T08:25:03;95133.03;;;11.60;58.93
20017;BME280;10169;42.664;23.610;2023-04-27T08:27:07;95138.41;;;11.87;56.07
20017;BME280;10169;42.664;23.610;2023-04-27T08:29:08;95133.22;;;12.34;56.42
20017;BME280;10169;42.664;23.610;2023-04-27T08:31:08;95121.06;;;11.85;55.37
20017;BME280;10169;42.664;23.610;2023-04-27T08:33:08;95128.16;;;12.01;56.09
20017;BME280;10169;42.664;23.610;2023-04-27T08:35:09;95133.75;;;11.78;57.54
20017;BME280;10169;42.664;23.610;2023-04-27T08:37:10;95134.16;;;12.18;57.29
20017;BME280;10169;42.664;23.610;2023-04-27T08:39:10;95143.25;;;11.69;56.47
20017;BME280;10169;42.664;23.610;2023-04-27T08:41:16;95139.41;;;11.38;56.28
20017;BME280;10169;42.664;23.610;2023-04-27T08:43:16;95152.25;;;11.89;57.05
20017;BME280;10169;42.664;23.610;2023-04-27T08:45:17;95142.63;;;12.42;55.72
20017;BME280;10169;42.664;23.610;2023-04-27T08:47:17;95134.69;;;12.52;54.61
20017;BME280;10169;42.664;23.610;2023-04-27T08:49:18;95129.25;;;12.05;55.55
20017;BME280;10169;42.664;23.610;2023-04-27T08:51:20;95127.44;;;12.10;56.08
20017;BME280;10169;42.664;23.610;2023-04-27T08:53:20;95127.81;;;12.24;55.72
20017;BME280;10169;42.664;23.610;2023-04-27T08:55:21;95126.34;;;12.75;55.11
20017;BME280;10169;42.664;23.610;2023-04-27T08:57:22;95131.22;;;12.51;53.47
20017;BME280;10169;42.664;23.610;2023-04-27T08:59:22;95128.78;;;12.81;51.85
20017;BME280;10169;42.664;23.610;2023-04-27T09:01:23;95131.25;;;13.40;53.63
20017;BME280;10169;42.664;23.610;2023-04-27T09:03:24;95131.53;;;12.96;52.81
20017;BME280;10169;42.664;23.610;2023-04-27T09:05:24;95122.13;;;12.84;52.56
20017;BME280;10169;42.664;23.610;2023-04-27T09:07:25;95118.72;;;12.93;53.37
20017;BME280;10169;42.664;23.610;2023-04-27T09:09:25;95123.25;;;12.93;54.96
20017;BME280;10169;42.664;23.610;2023-04-27T09:11:38;95127.94;;;13.13;54.70
20017;BME280;10169;42.664;23.610;2023-04-27T09:13:39;95117.63;;;13.31;52.99
20017;BME280;10169;42.664;23.610;2023-04-27T09:15:49;95124.63;;;13.00;53.44
20017;BME280;10169;42.664;23.610;2023-04-27T09:17:54;95124.31;;;13.39;54.35
20017;BME280;10169;42.664;23.610;2023-04-27T09:22:08;95127.63;;;13.71;49.66
20017;BME280;10169;42.664;23.610;2023-04-27T09:24:10;95118.06;;;12.76;51.18
20017;BME280;10169;42.664;23.610;2023-04-27T09:26:18;95121.31;;;12.10;51.18
20017;BME280;10169;42.664;23.610;2023-04-27T09:28:19;95118.16;;;12.91;52.06
20017;BME280;10169;42.664;23.610;2023-04-27T09:30:20;95116.03;;;12.93;54.33
20017;BME280;10169;42.664;23.610;2023-04-27T09:32:20;95116.56;;;12.90;52.02
20017;BME280;10169;42.664;23.610;2023-04-27T09:34:21;95114.38;;;12.77;50.13
20017;BME280;10169;42.664;23.610;2023-04-27T09:36:21;95111.66;;;12.72;52.34
20017;BME280;10169;42.664;23.610;2023-04-27T09:38:24;95106.75;;;13.53;52.16
20017;BME280;10169;42.664;23.610;2023-04-27T09:40:26;95102.38;;;13.27;50.26
20017;BME280;10169;42.664;23.610;2023-04-27T09:42:28;95109.16;;;13.49;50.25
20017;BME280;10169;42.664;23.610;2023-04-27T09:44:29;95111.97;;;13.28;53.11
20017;BME280;10169;42.664;23.610;2023-04-27T09:46:31;95090.19;;;12.52;51.80
20017;BME280;10169;42.664;23.610;2023-04-27T09:48:32;95100.56;;;12.49;53.72
20017;BME280;10169;42.664;23.610;2023-04-27T09:50:35;95102.50;;;12.26;51.68
20017;BME280;10169;42.664;23.610;2023-04-27T09:52:36;95106.69;;;12.86;53.38
20017;BME280;10169;42.664;23.610;2023-04-27T09:54:36;95100.72;;;13.11;52.91
20017;BME280;10169;42.664;23.610;2023-04-27T09:59:17;95091.25;;;12.98;49.99
20017;BME280;10169;42.664;23.610;2023-04-27T10:01:26;95086.03;;;13.18;52.88
20017;BME280;10169;42.664;23.610;2023-04-27T10:03:54;95099.25;;;13.50;51.61
20017;BME280;10169;42.664;23.610;2023-04-27T10:08:05;95096.16;;;13.93;49.16
20017;BME280;10169;42.664;23.610;2023-04-27T10:10:14;95099.91;;;13.87;50.91
20017;BME280;10169;42.664;23.610;2023-04-27T10:12:21;95082.53;;;13.95;48.58
20017;BME280;10169;42.664;23.610;2023-04-27T10:14:22;95104.19;;;13.98;49.74
20017;BME280;10169;42.664;23.610;2023-04-27T10:16:23;95095.03;;;13.64;50.53
20017;BME280;10169;42.664;23.610;2023-04-27T10:18:24;95086.47;;;12.95;47.84
20017;BME280;10169;42.664;23.610;2023-04-27T10:20:35;95093.91;;;12.98;49.15
20017;BME280;10169;42.664;23.610;2023-04-27T10:22:36;95093.34;;;13.43;48.60
20017;BME280;10169;42.664;23.610;2023-04-27T10:24:39;95080.16;;;14.03;49.38
20017;BME280;10169;42.664;23.610;2023-04-27T10:26:44;95107.59;;;13.68;47.74
20017;BME280;10169;42.664;23.610;2023-04-27T10:28:45;95102.53;;;13.77;48.58
20017;BME280;10169;42.664;23.610;2023-04-27T10:30:47;95087.53;;;13.56;48.02
20017;BME280;10169;42.664;23.610;2023-04-27T10:35:04;95081.75;;;14.09;47.57
20017;BME280;10169;42.664;23.610;2023-04-27T10:37:09;95084.44;;;14.24;50.11
20017;BME280;10169;42.664;23.610;2023-04-27T10:39:16;95073.22;;;14.07;48.43
20017;BME280;10169;42.664;23.610;2023-04-27T10:41:18;95071.06;;;13.94;48.92